sensor_id;sensor_type;location;lat;lon;timestamp;temperature;humidity
21115;DHT22;10715;48.546;9.896;2023-05-23T00:02:08;13.80;99.90
21115;DHT22;10715;48.546;9.896;2023-05-23T00:04:34;13.80;99.90
21115;DHT22;10715;48.546;9.896;2023-05-23T00:07:03;13.80;99.90
21115;DHT22;10715;48.546;9.896;2023-05-23T00:09:29;13.80;99.90
21115;DHT22;10715;48.546;9.896;2023-05-23T00:11:54;13.80;99.90
21115;DHT22;10715;48.546;9.896;2023-05-23T00:14:20;13.80;99.90
21115;DHT22;10715;48.546;9.896;2023-05-23T00:16:46;13.80;99.90
21115;DHT22;10715;48.546;9.896;2023-05-23T00:19:14;13.80;99.90
21115;DHT22;10715;48.546;9.896;2023-05-23T00:21:41;13.80;99.90
21115;DHT22;10715;48.546;9.896;2023-05-23T00:24:08;13.80;99.90
21115;DHT22;10715;48.546;9.896;2023-05-23T00:26:35;13.80;99.90
21115;DHT22;10715;48.546;9.896;2023-05-23T00:29:01;13.80;99.90
21115;DHT22;10715;48.546;9.896;2023-05-23T00:31:27;13.90;99.90
21115;DHT22;10715;48.546;9.896;2023-05-23T00:33:52;13.90;99.90
21115;DHT22;10715;48.546;9.896;2023-05-23T00:36:18;13.90;99.90
21115;DHT22;10715;48.546;9.896;2023-05-23T00:38:44;13.90;99.90
21115;DHT22;10715;48.546;9.896;2023-05-23T00:41:13;13.90;99.90
21115;DHT22;10715;48.546;9.896;2023-05-23T00:43:39;14.00;99.90
21115;DHT22;10715;48.546;9.896;2023-05-23T00:46:05;14.00;99.90
21115;DHT22;10715;48.546;9.896;2023-05-23T00:48:31;14.00;99.90
21115;DHT22;10715;48.546;9.896;2023-05-23T00:50:57;14.00;99.90
21115;DHT22;10715;48.546;9.896;2023-05-23T00:53:23;14.10;99.90
21115;DHT22;10715;48.546;9.896;2023-05-23T00:55:50;14.10;99.90
21115;DHT22;10715;48.546;9.896;2023-05-23T00:58:16;14.10;99.90
21115;DHT22;10715;48.546;9.896;2023-05-23T01:00:42;14.10;99.90
21115;DHT22;10715;48.546;9.896;2023-05-23T01:03:09;14.20;99.90
21115;DHT22;10715;48.546;9.896;2023-05-23T01:05:41;14.20;99.90
21115;DHT22;10715;48.546;9.896;2023-05-23T01:08:06;14.20;99.90
21115;DHT22;10715;48.546;9.896;2023-05-23T01:10:32;14.20;99.90
21115;DHT22;10715;48.546;9.896;2023-05-23T01:15:56;14.20;99.90
21115;DHT22;10715;48.546;9.896;2023-05-23T01:21:14;14.30;99.90
21115;DHT22;10715;48.546;9.896;2023-05-23T01:29:07;14.30;99.90
21115;DHT22;10715;48.546;9.896;2023-05-23T01:31:36;14.30;99.90
21115;DHT22;10715;48.546;9.896;2023-05-23T01:34:05;14.30;99.90
21115;DHT22;10715;48.546;9.896;2023-05-23T01:36:33;14.30;99.90
21115;DHT22;10715;48.546;9.896;2023-05-23T01:39:02;14.30;99.90
21115;DHT22;10715;48.546;9.896;2023-05-23T01:41:27;14.40;99.90
21115;DHT22;10715;48.546;9.896;2023-05-23T01:43:53;14.40;99.90
21115;DHT22;10715;48.546;9.896;2023-05-23T01:46:21;14.40;99.90
21115;DHT22;10715;48.546;9.896;2023-05-23T01:48:47;14.40;99.90
21115;DHT22;10715;48.546;9.896;2023-05-23T01:51:14;14.40;99.90
21115;DHT22;10715;48.546;9.896;2023-05-23T01:53:40;14.40;99.90
21115;DHT22;10715;48.546;9.896;2023-05-23T01:56:05;14.40;99.90
21115;DHT22;10715;48.546;9.896;2023-05-23T01:58:32;14.40;99.90
21115;DHT22;10715;48.546;9.896;2023-05-23T02:00:58;14.40;99.90
21115;DHT22;10715;48.546;9.896;2023-05-23T02:03:24;14.50;99.90
21115;DHT22;10715;48.546;9.896;2023-05-23T02:05:49;14.40;99.90
21115;DHT22;10715;48.546;9.896;2023-05-23T02:08:15;14.50;99.90
21115;DHT22;10715;48.546;9.896;2023-05-23T02:10:41;14.50;99.90
21115;DHT22;10715;48.546;9.896;2023-05-23T02:13:07;14.50;99.90
21115;DHT22;10715;48.546;9.896;2023-05-23T02:15:33;14.50;99.90
21115;DHT22;10715;48.546;9.896;2023-05-23T02:17:58;14.50;99.90
21115;DHT22;10715;48.546;9.896;2023-05-23T02:20:24;14.50;99.90
21115;DHT22;10715;48.546;9.896;2023-05-23T02:22:50;14.50;99.90
21115;DHT22;10715;48.546;9.896;2023-05-23T02:25:16;14.50;99.90
21115;DHT22;10715;48.546;9.896;2023-05-23T02:27:41;14.50;99.90
21115;DHT22;10715;48.546;9.896;2023-05-23T02:30:07;14.50;99.90
21115;DHT22;10715;48.546;9.896;2023-05-23T02:32:33;14.50;99.90
21115;DHT22;10715;48.546;9.896;2023-05-23T02:34:59;14.50;99.90
21115;DHT22;10715;48.546;9.896;2023-05-23T02:37:25;14.50;99.90
21115;DHT22;10715;48.546;9.896;2023-05-23T02:39:50;14.50;99.90
21115;DHT22;10715;48.546;9.896;2023-05-23T02:42:16;14.50;99.90
21115;DHT22;10715;48.546;9.896;2023-05-23T02:44:42;14.50;99.90
21115;DHT22;10715;48.546;9.896;2023-05-23T02:47:07;14.50;99.90
21115;DHT22;10715;48.546;9.896;2023-05-23T02:49:33;14.50;99.90
21115;DHT22;10715;48.546;9.896;2023-05-23T02:51:59;14.50;99.90
21115;DHT22;10715;48.546;9.896;2023-05-23T02:54:24;14.50;99.90
21115;DHT22;10715;48.546;9.896;2023-05-23T02:56:50;14.50;99.90
21115;DHT22;10715;48.546;9.896;2023-05-23T02:59:18;14.50;99.90
21115;DHT22;10715;48.546;9.896;2023-05-23T03:01:43;14.50;99.90
21115;DHT22;10715;48.546;9.896;2023-05-23T03:04:09;14.50;99.90
21115;DHT22;10715;48.546;9.896;2023-05-23T03:06:35;14.60;99.90
21115;DHT22;10715;48.546;9.896;2023-05-23T03:09:01;14.60;99.90
21115;DHT22;10715;48.546;9.896;2023-05-23T03:11:27;14.60;99.90
21115;DHT22;10715;48.546;9.896;2023-05-23T03:13:54;14.60;99.90
21115;DHT22;10715;48.546;9.896;2023-05-23T03:16:21;14.60;99.90
21115;DHT22;10715;48.546;9.896;2023-05-23T03:18:48;14.70;99.90
21115;DHT22;10715;48.546;9.896;2023-05-23T03:21:13;14.70;99.90
21115;DHT22;10715;48.546;9.896;2023-05-23T03:23:39;14.70;99.90
21115;DHT22;10715;48.546;9.896;2023-05-23T03:26:05;14.70;99.90
21115;DHT22;10715;48.546;9.896;2023-05-23T03:28:31;14.70;99.90
21115;DHT22;10715;48.546;9.896;2023-05-23T03:30:57;14.80;99.90
21115;DHT22;10715;48.546;9.896;2023-05-23T03:33:23;14.80;99.90
21115;DHT22;10715;48.546;9.896;2023-05-23T03:35:49;14.80;99.90
21115;DHT22;10715;48.546;9.896;2023-05-23T03:38:15;14.80;99.90
21115;DHT22;10715;48.546;9.896;2023-05-23T03:40:41;14.80;99.90
21115;DHT22;10715;48.546;9.896;2023-05-23T03:43:07;14.80;99.90
21115;DHT22;10715;48.546;9.896;2023-05-23T03:45:33;14.80;99.90
21115;DHT22;10715;48.546;9.896;2023-05-23T03:47:59;14.80;99.90
21115;DHT22;10715;48.546;9.896;2023-05-23T03:50:25;14.80;99.90
21115;DHT22;10715;48.546;9.896;2023-05-23T03:52:52;14.90;99.90
21115;DHT22;10715;48.546;9.896;2023-05-23T03:55:19;14.90;99.90
21115;DHT22;10715;48.546;9.896;2023-05-23T03:57:49;14.90;99.90
21115;DHT22;10715;48.546;9.896;2023-05-23T04:00:16;14.90;99.90
21115;DHT22;10715;48.546;9.896;2023-05-23T04:02:42;14.90;99.90
21115;DHT22;10715;48.546;9.896;2023-05-23T04:05:08;14.90;99.90
21115;DHT22;10715;48.546;9.896;2023-05-23T04:07:33;14.90;99.90
21115;DHT22;10715;48.546;9.896;2023-05-23T04:09:59;14.90;99.90
21115;DHT22;10715;48.546;9.896;2023-05-23T04:12:25;14.90;99.90
21115;DHT22;10715;48.546;9.896;2023-05-23T04:14:51;14.90;99.90
21115;DHT22;10715;48.546;9.896;2023-05-23T04:17:17;14.90;99.90
21115;DHT22;10715;48.546;9.896;2023-05-23T04:19:43;14.90;99.90
21115;DHT22;10715;48.546;9.896;2023-05-23T04:22:09;14.90;99.90
21115;DHT22;10715;48.546;9.896;2023-05-23T04:24:36;14.90;99.90
21115;DHT22;10715;48.546;9.896;2023-05-23T04:27:01;15.00;99.90
21115;DHT22;10715;48.546;9.896;2023-05-23T04:29:27;15.00;99.90
21115;DHT22;10715;48.546;9.896;2023-05-23T04:31:56;15.00;99.90
21115;DHT22;10715;48.546;9.896;2023-05-23T04:34:22;15.00;99.90
21115;DHT22;10715;48.546;9.896;2023-05-23T04:36:48;15.00;99.90
21115;DHT22;10715;48.546;9.896;2023-05-23T04:39:14;15.00;99.90
21115;DHT22;10715;48.546;9.896;2023-05-23T04:41:41;15.00;99.90
21115;DHT22;10715;48.546;9.896;2023-05-23T04:44:07;15.00;99.90
21115;DHT22;10715;48.546;9.896;2023-05-23T04:46:35;15.00;99.90
21115;DHT22;10715;48.546;9.896;2023-05-23T04:49:01;15.00;99.90
21115;DHT22;10715;48.546;9.896;2023-05-23T04:51:28;15.00;99.90
21115;DHT22;10715;48.546;9.896;2023-05-23T04:53:54;15.00;99.90
21115;DHT22;10715;48.546;9.896;2023-05-23T04:56:19;15.00;99.90
21115;DHT22;10715;48.546;9.896;2023-05-23T04:58:46;15.00;99.90
21115;DHT22;10715;48.546;9.896;2023-05-23T05:01:12;15.10;99.90
21115;DHT22;10715;48.546;9.896;2023-05-23T05:03:38;15.10;99.90
21115;DHT22;10715;48.546;9.896;2023-05-23T05:06:05;15.10;99.90
21115;DHT22;10715;48.546;9.896;2023-05-23T05:08:31;15.10;99.90
21115;DHT22;10715;48.546;9.896;2023-05-23T05:10:57;15.10;99.90
21115;DHT22;10715;48.546;9.896;2023-05-23T05:13:22;15.10;99.90
21115;DHT22;10715;48.546;9.896;2023-05-23T05:15:48;15.10;99.90
21115;DHT22;10715;48.546;9.896;2023-05-23T05:18:14;15.10;99.90
21115;DHT22;10715;48.546;9.896;2023-05-23T05:20:40;15.10;99.90
21115;DHT22;10715;48.546;9.896;2023-05-23T05:23:06;15.10;99.90
21115;DHT22;10715;48.546;9.896;2023-05-23T05:25:34;15.10;99.90
21115;DHT22;10715;48.546;9.896;2023-05-23T05:28:01;15.10;99.90
21115;DHT22;10715;48.546;9.896;2023-05-23T05:30:31;15.10;99.90
21115;DHT22;10715;48.546;9.896;2023-05-23T05:33:03;15.10;99.90
21115;DHT22;10715;48.546;9.896;2023-05-23T05:35:34;15.10;99.90
21115;DHT22;10715;48.546;9.896;2023-05-23T05:38:03;15.10;99.90
21115;DHT22;10715;48.546;9.896;2023-05-23T05:40:30;15.10;99.90
21115;DHT22;10715;48.546;9.896;2023-05-23T05:42:56;15.10;99.90
21115;DHT22;10715;48.546;9.896;2023-05-23T05:45:22;15.10;99.90
21115;DHT22;10715;48.546;9.896;2023-05-23T05:47:47;15.10;99.90
21115;DHT22;10715;48.546;9.896;2023-05-23T05:50:13;15.10;99.90
21115;DHT22;10715;48.546;9.896;2023-05-23T05:52:40;15.10;99.90
21115;DHT22;10715;48.546;9.896;2023-05-23T05:55:07;15.10;99.90
21115;DHT22;10715;48.546;9.896;2023-05-23T05:57:38;15.10;99.90
21115;DHT22;10715;48.546;9.896;2023-05-23T06:00:12;15.10;99.90
21115;DHT22;10715;48.546;9.896;2023-05-23T06:02:44;15.10;99.90
21115;DHT22;10715;48.546;9.896;2023-05-23T06:05:14;15.10;99.90
21115;DHT22;10715;48.546;9.896;2023-05-23T06:07:43;15.10;99.90
21115;DHT22;10715;48.546;9.896;2023-05-23T06:10:09;15.10;99.90
21115;DHT22;10715;48.546;9.896;2023-05-23T06:12:37;15.10;99.90
21115;DHT22;10715;48.546;9.896;2023-05-23T06:15:06;15.10;99.90
21115;DHT22;10715;48.546;9.896;2023-05-23T06:17:35;15.10;99.90
21115;DHT22;10715;48.546;9.896;2023-05-23T06:20:01;15.10;99.90
21115;DHT22;10715;48.546;9.896;2023-05-23T06:22:28;15.10;99.90
21115;DHT22;10715;48.546;9.896;2023-05-23T06:24:53;15.10;99.90
21115;DHT22;10715;48.546;9.896;2023-05-23T06:27:19;15.10;99.90
21115;DHT22;10715;48.546;9.896;2023-05-23T06:29:45;15.10;99.90
21115;DHT22;10715;48.546;9.896;2023-05-23T06:32:10;15.20;99.90
21115;DHT22;10715;48.546;9.896;2023-05-23T06:34:36;15.20;99.90
21115;DHT22;10715;48.546;9.896;2023-05-23T06:37:02;15.20;99.90
21115;DHT22;10715;48.546;9.896;2023-05-23T06:39:27;15.20;99.90
21115;DHT22;10715;48.546;9.896;2023-05-23T06:41:53;15.20;99.90
21115;DHT22;10715;48.546;9.896;2023-05-23T06:44:19;15.30;99.90
21115;DHT22;10715;48.546;9.896;2023-05-23T06:46:45;15.30;99.90
21115;DHT22;10715;48.546;9.896;2023-05-23T06:49:12;15.30;99.90
21115;DHT22;10715;48.546;9.896;2023-05-23T06:51:37;15.30;99.90
21115;DHT22;10715;48.546;9.896;2023-05-23T06:54:03;15.30;99.90
21115;DHT22;10715;48.546;9.896;2023-05-23T06:56:29;15.30;99.90
21115;DHT22;10715;48.546;9.896;2023-05-23T06:58:55;15.30;99.90
21115;DHT22;10715;48.546;9.896;2023-05-23T07:01:20;15.30;99.90
21115;DHT22;10715;48.546;9.896;2023-05-23T07:03:46;15.40;99.90
21115;DHT22;10715;48.546;9.896;2023-05-23T07:06:12;15.40;99.90
21115;DHT22;10715;48.546;9.896;2023-05-23T07:08:37;15.40;99.90
21115;DHT22;10715;48.546;9.896;2023-05-23T07:11:04;15.40;99.90
21115;DHT22;10715;48.546;9.896;2023-05-23T07:13:31;15.40;99.90
21115;DHT22;10715;48.546;9.896;2023-05-23T07:15:56;15.40;99.90
21115;DHT22;10715;48.546;9.896;2023-05-23T07:18:22;15.40;99.90
21115;DHT22;10715;48.546;9.896;2023-05-23T07:20:48;15.40;99.90
21115;DHT22;10715;48.546;9.896;2023-05-23T07:23:14;15.40;99.90
21115;DHT22;10715;48.546;9.896;2023-05-23T07:25:41;15.40;99.90
21115;DHT22;10715;48.546;9.896;2023-05-23T07:28:07;15.50;99.90
21115;DHT22;10715;48.546;9.896;2023-05-23T07:30:33;15.50;99.90
21115;DHT22;10715;48.546;9.896;2023-05-23T07:32:59;15.50;99.90
21115;DHT22;10715;48.546;9.896;2023-05-23T07:35:25;15.50;99.90
21115;DHT22;10715;48.546;9.896;2023-05-23T07:37:54;15.50;99.90
21115;DHT22;10715;48.546;9.896;2023-05-23T07:40:23;15.50;99.90
21115;DHT22;10715;48.546;9.896;2023-05-23T07:42:49;15.50;99.90
21115;DHT22;10715;48.546;9.896;2023-05-23T07:45:15;15.50;99.90
21115;DHT22;10715;48.546;9.896;2023-05-23T07:47:40;15.50;99.90
21115;DHT22;10715;48.546;9.896;2023-05-23T07:50:07;15.50;99.90
21115;DHT22;10715;48.546;9.896;2023-05-23T07:52:33;15.50;99.90
21115;DHT22;10715;48.546;9.896;2023-05-23T07:54:59;15.50;99.90
21115;DHT22;10715;48.546;9.896;2023-05-23T07:57:25;15.50;99.90
21115;DHT22;10715;48.546;9.896;2023-05-23T07:59:52;15.50;99.90
21115;DHT22;10715;48.546;9.896;2023-05-23T08:02:18;15.50;99.90
21115;DHT22;10715;48.546;9.896;2023-05-23T08:04:45;15.50;99.90
21115;DHT22;10715;48.546;9.896;2023-05-23T08:07:11;15.50;99.90
21115;DHT22;10715;48.546;9.896;2023-05-23T08:09:40;15.60;99.90
21115;DHT22;10715;48.546;9.896;2023-05-23T08:12:07;15.60;99.90
21115;DHT22;10715;48.546;9.896;2023-05-23T08:14:33;15.60;99.90
21115;DHT22;10715;48.546;9.896;2023-05-23T08:17:00;15.60;99.90
21115;DHT22;10715;48.546;9.896;2023-05-23T08:19:27;15.60;99.90
21115;DHT22;10715;48.546;9.896;2023-05-23T08:21:52;15.60;99.90
21115;DHT22;10715;48.546;9.896;2023-05-23T08:24:21;15.60;99.90
21115;DHT22;10715;48.546;9.896;2023-05-23T08:26:48;15.60;99.90
21115;DHT22;10715;48.546;9.896;2023-05-23T08:29:16;15.60;99.90
21115;DHT22;10715;48.546;9.896;2023-05-23T08:31:42;15.70;99.90
21115;DHT22;10715;48.546;9.896;2023-05-23T08:34:09;15.70;99.90
21115;DHT22;10715;48.546;9.896;2023-05-23T08:36:35;15.70;99.90
21115;DHT22;10715;48.546;9.896;2023-05-23T08:39:02;15.80;99.90
21115;DHT22;10715;48.546;9.896;2023-05-23T08:41:29;15.80;99.90
21115;DHT22;10715;48.546;9.896;2023-05-23T08:43:58;15.80;99.90
21115;DHT22;10715;48.546;9.896;2023-05-23T08:46:27;15.90;99.90
21115;DHT22;10715;48.546;9.896;2023-05-23T08:48:55;15.90;99.90
21115;DHT22;10715;48.546;9.896;2023-05-23T08:51:22;15.90;99.90
21115;DHT22;10715;48.546;9.896;2023-05-23T08:53:51;15.90;99.90
21115;DHT22;10715;48.546;9.896;2023-05-23T08:56:19;15.90;99.90
21115;DHT22;10715;48.546;9.896;2023-05-23T08:58:45;16.00;99.90
21115;DHT22;10715;48.546;9.896;2023-05-23T09:01:12;16.10;99.90
21115;DHT22;10715;48.546;9.896;2023-05-23T09:03:39;16.10;99.90
21115;DHT22;10715;48.546;9.896;2023-05-23T09:06:07;16.10;99.90
21115;DHT22;10715;48.546;9.896;2023-05-23T09:08:33;16.20;99.90
21115;DHT22;10715;48.546;9.896;2023-05-23T09:11:01;16.20;99.90
21115;DHT22;10715;48.546;9.896;2023-05-23T09:13:29;16.30;99.90
21115;DHT22;10715;48.546;9.896;2023-05-23T09:18:44;16.50;99.90
21115;DHT22;10715;48.546;9.896;2023-05-23T09:21:11;16.60;99.90
21115;DHT22;10715;48.546;9.896;2023-05-23T09:23:39;16.60;99.90
21115;DHT22;10715;48.546;9.896;2023-05-23T09:26:09;16.60;99.90
21115;DHT22;10715;48.546;9.896;2023-05-23T09:28:37;16.70;99.90
21115;DHT22;10715;48.546;9.896;2023-05-23T09:31:07;16.70;99.90
21115;DHT22;10715;48.546;9.896;2023-05-23T09:33:43;16.80;99.90
21115;DHT22;10715;48.546;9.896;2023-05-23T09:36:11;16.80;99.90
21115;DHT22;10715;48.546;9.896;2023-05-23T09:38:42;16.90;99.90
21115;DHT22;10715;48.546;9.896;2023-05-23T09:41:08;16.90;99.90
21115;DHT22;10715;48.546;9.896;2023-05-23T09:43:49;17.00;99.90
21115;DHT22;10715;48.546;9.896;2023-05-23T09:46:16;17.10;99.90
21115;DHT22;10715;48.546;9.896;2023-05-23T09:48:47;17.10;99.90
21115;DHT22;10715;48.546;9.896;2023-05-23T09:51:18;17.20;99.90
21115;DHT22;10715;48.546;9.896;2023-05-23T09:53:46;17.20;99.90
21115;DHT22;10715;48.546;9.896;2023-05-23T09:56:12;17.10;99.90
21115;DHT22;10715;48.546;9.896;2023-05-23T09:58:46;17.10;99.90
21115;DHT22;10715;48.546;9.896;2023-05-23T10:01:12;17.10;99.90
21115;DHT22;10715;48.546;9.896;2023-05-23T10:03:44;17.10;99.90
21115;DHT22;10715;48.546;9.896;2023-05-23T10:09:04;17.10;99.90
21115;DHT22;10715;48.546;9.896;2023-05-23T10:14:06;17.10;99.90
21115;DHT22;10715;48.546;9.896;2023-05-23T10:17:02;17.10;99.90
21115;DHT22;10715;48.546;9.896;2023-05-23T10:19:43;17.00;99.90
21115;DHT22;10715;48.546;9.896;2023-05-23T10:22:13;17.00;99.90
21115;DHT22;10715;48.546;9.896;2023-05-23T10:24:41;17.00;99.90
21115;DHT22;10715;48.546;9.896;2023-05-23T10:27:09;17.00;99.90
21115;DHT22;10715;48.546;9.896;2023-05-23T10:29:35;17.00;99.90
21115;DHT22;10715;48.546;9.896;2023-05-23T10:32:01;17.00;99.90
21115;DHT22;10715;48.546;9.896;2023-05-23T10:37:03;17.00;99.90
21115;DHT22;10715;48.546;9.896;2023-05-23T10:39:50;16.90;99.90
21115;DHT22;10715;48.546;9.896;2023-05-23T10:45:19;16.90;99.90
21115;DHT22;10715;48.546;9.896;2023-05-23T10:47:50;16.90;99.90
21115;DHT22;10715;48.546;9.896;2023-05-23T10:50:33;16.90;99.90
21115;DHT22;10715;48.546;9.896;2023-05-23T10:53:02;16.90;99.90
21115;DHT22;10715;48.546;9.896;2023-05-23T10:55:32;16.90;99.90
21115;DHT22;10715;48.546;9.896;2023-05-23T10:58:14;16.90;99.90
21115;DHT22;10715;48.546;9.896;2023-05-23T11:00:53;16.90;99.90
21115;DHT22;10715;48.546;9.896;2023-05-23T11:06:03;16.90;99.90
21115;DHT22;10715;48.546;9.896;2023-05-23T11:08:37;16.90;99.90
21115;DHT22;10715;48.546;9.896;2023-05-23T11:11:05;16.90;99.90
21115;DHT22;10715;48.546;9.896;2023-05-23T11:13:56;16.90;99.90
21115;DHT22;10715;48.546;9.896;2023-05-23T11:16:39;17.00;99.90
21115;DHT22;10715;48.546;9.896;2023-05-23T11:21:45;17.20;99.90
21115;DHT22;10715;48.546;9.896;2023-05-23T11:24:11;17.20;99.90
21115;DHT22;10715;48.546;9.896;2023-05-23T11:26:36;17.20;99.90
21115;DHT22;10715;48.546;9.896;2023-05-23T11:29:07;17.20;99.90
21115;DHT22;10715;48.546;9.896;2023-05-23T11:31:37;17.30;99.90
21115;DHT22;10715;48.546;9.896;2023-05-23T11:34:03;17.40;99.90
21115;DHT22;10715;48.546;9.896;2023-05-23T11:36:29;17.40;99.90
21115;DHT22;10715;48.546;9.896;2023-05-23T11:38:56;17.40;99.90
21115;DHT22;10715;48.546;9.896;2023-05-23T11:41:26;17.40;99.90
21115;DHT22;10715;48.546;9.896;2023-05-23T11:43:52;17.40;99.90
21115;DHT22;10715;48.546;9.896;2023-05-23T11:46:19;17.50;99.90
21115;DHT22;10715;48.546;9.896;2023-05-23T11:48:46;17.50;99.90
21115;DHT22;10715;48.546;9.896;2023-05-23T11:51:13;17.50;99.90
21115;DHT22;10715;48.546;9.896;2023-05-23T11:53:40;17.50;99.90
21115;DHT22;10715;48.546;9.896;2023-05-23T11:56:05;17.50;99.90
21115;DHT22;10715;48.546;9.896;2023-05-23T11:58:38;17.50;99.90
21115;DHT22;10715;48.546;9.896;2023-05-23T12:01:06;17.50;99.90
21115;DHT22;10715;48.546;9.896;2023-05-23T12:03:43;17.50;99.90
21115;DHT22;10715;48.546;9.896;2023-05-23T12:06:13;17.50;99.90
21115;DHT22;10715;48.546;9.896;2023-05-23T12:08:38;17.60;99.90
21115;DHT22;10715;48.546;9.896;2023-05-23T12:11:05;17.60;99.90
21115;DHT22;10715;48.546;9.896;2023-05-23T12:13:31;17.70;99.90
21115;DHT22;10715;48.546;9.896;2023-05-23T12:16:01;17.70;99.90
21115;DHT22;10715;48.546;9.896;2023-05-23T12:18:28;17.80;99.90
21115;DHT22;10715;48.546;9.896;2023-05-23T12:20:58;17.80;99.90
21115;DHT22;10715;48.546;9.896;2023-05-23T12:23:24;17.80;99.90
21115;DHT22;10715;48.546;9.896;2023-05-23T12:25:52;17.80;99.90
21115;DHT22;10715;48.546;9.896;2023-05-23T12:28:18;17.80;99.90
21115;DHT22;10715;48.546;9.896;2023-05-23T12:30:44;17.80;99.90
21115;DHT22;10715;48.546;9.896;2023-05-23T12:33:10;17.80;99.90
21115;DHT22;10715;48.546;9.896;2023-05-23T12:35:36;17.80;99.90
21115;DHT22;10715;48.546;9.896;2023-05-23T12:38:05;17.80;99.90
21115;DHT22;10715;48.546;9.896;2023-05-23T12:40:34;17.80;99.90
21115;DHT22;10715;48.546;9.896;2023-05-23T12:43:00;17.80;99.90
21115;DHT22;10715;48.546;9.896;2023-05-23T12:45:34;17.80;99.90
21115;DHT22;10715;48.546;9.896;2023-05-23T12:48:07;17.90;99.90
21115;DHT22;10715;48.546;9.896;2023-05-23T12:50:34;17.90;99.90
21115;DHT22;10715;48.546;9.896;2023-05-23T12:53:00;17.80;99.90
21115;DHT22;10715;48.546;9.896;2023-05-23T12:55:26;17.90;99.90
21115;DHT22;10715;48.546;9.896;2023-05-23T12:57:53;17.80;99.90
21115;DHT22;10715;48.546;9.896;2023-05-23T13:00:20;17.80;99.90
21115;DHT22;10715;48.546;9.896;2023-05-23T13:02:46;17.70;99.90
21115;DHT22;10715;48.546;9.896;2023-05-23T13:05:11;17.70;99.90
21115;DHT22;10715;48.546;9.896;2023-05-23T13:07:37;17.70;99.90
21115;DHT22;10715;48.546;9.896;2023-05-23T13:10:04;17.70;99.90
21115;DHT22;10715;48.546;9.896;2023-05-23T13:12:31;17.70;99.90
21115;DHT22;10715;48.546;9.896;2023-05-23T13:14:58;17.70;99.90
21115;DHT22;10715;48.546;9.896;2023-05-23T13:17:24;17.70;99.90
21115;DHT22;10715;48.546;9.896;2023-05-23T13:19:50;17.70;99.90
21115;DHT22;10715;48.546;9.896;2023-05-23T13:22:15;17.70;99.90
21115;DHT22;10715;48.546;9.896;2023-05-23T13:24:41;17.70;99.90
21115;DHT22;10715;48.546;9.896;2023-05-23T13:27:08;17.70;99.90
21115;DHT22;10715;48.546;9.896;2023-05-23T13:29:33;17.70;99.90
21115;DHT22;10715;48.546;9.896;2023-05-23T13:31:59;17.70;99.90
21115;DHT22;10715;48.546;9.896;2023-05-23T13:34:26;17.60;99.90
21115;DHT22;10715;48.546;9.896;2023-05-23T13:36:53;17.60;99.90
21115;DHT22;10715;48.546;9.896;2023-05-23T13:39:19;17.60;99.90
21115;DHT22;10715;48.546;9.896;2023-05-23T13:41:51;17.60;99.90
21115;DHT22;10715;48.546;9.896;2023-05-23T13:44:17;17.50;99.90
21115;DHT22;10715;48.546;9.896;2023-05-23T13:46:43;17.50;99.90
21115;DHT22;10715;48.546;9.896;2023-05-23T13:49:09;17.50;99.90
21115;DHT22;10715;48.546;9.896;2023-05-23T13:51:35;17.50;99.90
21115;DHT22;10715;48.546;9.896;2023-05-23T13:54:04;17.50;99.90
21115;DHT22;10715;48.546;9.896;2023-05-23T13:56:30;17.40;99.90
21115;DHT22;10715;48.546;9.896;2023-05-23T13:58:56;17.40;99.90
21115;DHT22;10715;48.546;9.896;2023-05-23T14:01:22;17.40;99.90
21115;DHT22;10715;48.546;9.896;2023-05-23T14:03:48;17.50;99.90
21115;DHT22;10715;48.546;9.896;2023-05-23T14:06:14;17.50;99.90
21115;DHT22;10715;48.546;9.896;2023-05-23T14:08:40;17.50;99.90
21115;DHT22;10715;48.546;9.896;2023-05-23T14:11:05;17.50;99.90
21115;DHT22;10715;48.546;9.896;2023-05-23T14:13:31;17.50;99.90
21115;DHT22;10715;48.546;9.896;2023-05-23T14:15:58;17.50;99.90
21115;DHT22;10715;48.546;9.896;2023-05-23T14:18:24;17.60;99.90
21115;DHT22;10715;48.546;9.896;2023-05-23T14:20:50;17.60;99.90
21115;DHT22;10715;48.546;9.896;2023-05-23T14:23:15;17.60;99.90
21115;DHT22;10715;48.546;9.896;2023-05-23T14:25:41;17.70;99.90
21115;DHT22;10715;48.546;9.896;2023-05-23T14:28:07;17.70;99.90
21115;DHT22;10715;48.546;9.896;2023-05-23T14:30:33;17.70;99.90
21115;DHT22;10715;48.546;9.896;2023-05-23T14:32:59;17.80;99.90
21115;DHT22;10715;48.546;9.896;2023-05-23T14:35:24;17.80;99.90
21115;DHT22;10715;48.546;9.896;2023-05-23T14:37:50;17.90;99.90
21115;DHT22;10715;48.546;9.896;2023-05-23T14:40:16;17.90;99.90
21115;DHT22;10715;48.546;9.896;2023-05-23T14:42:42;17.90;99.90
21115;DHT22;10715;48.546;9.896;2023-05-23T14:45:08;17.90;99.90
21115;DHT22;10715;48.546;9.896;2023-05-23T14:47:34;17.90;99.90
21115;DHT22;10715;48.546;9.896;2023-05-23T14:50:01;17.90;99.90
21115;DHT22;10715;48.546;9.896;2023-05-23T14:52:27;17.90;99.90
21115;DHT22;10715;48.546;9.896;2023-05-23T14:54:53;17.90;99.90
21115;DHT22;10715;48.546;9.896;2023-05-23T14:57:19;17.90;99.90
21115;DHT22;10715;48.546;9.896;2023-05-23T14:59:44;17.90;99.90
21115;DHT22;10715;48.546;9.896;2023-05-23T15:02:11;17.90;99.90
21115;DHT22;10715;48.546;9.896;2023-05-23T15:04:37;18.00;99.90
21115;DHT22;10715;48.546;9.896;2023-05-23T15:07:03;18.00;99.90
21115;DHT22;10715;48.546;9.896;2023-05-23T15:09:28;18.00;99.90
21115;DHT22;10715;48.546;9.896;2023-05-23T15:11:55;18.00;99.90
21115;DHT22;10715;48.546;9.896;2023-05-23T15:14:21;18.00;99.90
21115;DHT22;10715;48.546;9.896;2023-05-23T15:16:47;18.00;99.90
21115;DHT22;10715;48.546;9.896;2023-05-23T15:19:15;18.00;99.90
21115;DHT22;10715;48.546;9.896;2023-05-23T15:21:40;18.10;99.90
21115;DHT22;10715;48.546;9.896;2023-05-23T15:24:07;18.00;99.90
21115;DHT22;10715;48.546;9.896;2023-05-23T15:26:33;18.00;99.90
21115;DHT22;10715;48.546;9.896;2023-05-23T15:29:00;18.00;99.90
21115;DHT22;10715;48.546;9.896;2023-05-23T15:31:26;18.00;99.90
21115;DHT22;10715;48.546;9.896;2023-05-23T15:33:52;17.90;99.90
21115;DHT22;10715;48.546;9.896;2023-05-23T15:36:19;17.90;99.90
21115;DHT22;10715;48.546;9.896;2023-05-23T15:38:45;17.80;99.90
21115;DHT22;10715;48.546;9.896;2023-05-23T15:41:11;17.80;99.90
21115;DHT22;10715;48.546;9.896;2023-05-23T15:43:38;17.80;99.90
21115;DHT22;10715;48.546;9.896;2023-05-23T15:46:04;17.80;99.90
21115;DHT22;10715;48.546;9.896;2023-05-23T15:48:30;17.80;99.90
21115;DHT22;10715;48.546;9.896;2023-05-23T15:50:56;17.90;99.90
21115;DHT22;10715;48.546;9.896;2023-05-23T15:53:22;17.90;99.90
21115;DHT22;10715;48.546;9.896;2023-05-23T15:55:48;17.90;99.90
21115;DHT22;10715;48.546;9.896;2023-05-23T15:58:13;17.90;99.90
21115;DHT22;10715;48.546;9.896;2023-05-23T16:00:39;17.80;99.90